sensor_id;sensor_type;location;lat;lon;timestamp;temperature;humidity
25320;DHT22;13256;49.012;8.610;2023-08-30T00:00:42;14.00;99.90
25320;DHT22;13256;49.012;8.610;2023-08-30T00:03:11;14.00;99.90
25320;DHT22;13256;49.012;8.610;2023-08-30T00:05:42;13.90;99.90
25320;DHT22;13256;49.012;8.610;2023-08-30T00:08:18;14.00;99.90
25320;DHT22;13256;49.012;8.610;2023-08-30T00:10:47;13.90;99.90
25320;DHT22;13256;49.012;8.610;2023-08-30T00:13:18;13.90;99.90
25320;DHT22;13256;49.012;8.610;2023-08-30T00:15:54;13.80;99.90
25320;DHT22;13256;49.012;8.610;2023-08-30T00:18:29;13.70;99.90
25320;DHT22;13256;49.012;8.610;2023-08-30T00:21:00;13.70;99.90
25320;DHT22;13256;49.012;8.610;2023-08-30T00:23:30;13.70;99.90
25320;DHT22;13256;49.012;8.610;2023-08-30T00:26:13;13.70;99.90
25320;DHT22;13256;49.012;8.610;2023-08-30T00:28:43;13.60;99.90
25320;DHT22;13256;49.012;8.610;2023-08-30T00:31:14;13.60;99.90
25320;DHT22;13256;49.012;8.610;2023-08-30T00:33:49;13.60;99.90
25320;DHT22;13256;49.012;8.610;2023-08-30T00:36:21;13.60;99.90
25320;DHT22;13256;49.012;8.610;2023-08-30T00:38:51;13.70;99.90
25320;DHT22;13256;49.012;8.610;2023-08-30T00:41:21;13.70;99.90
25320;DHT22;13256;49.012;8.610;2023-08-30T00:43:55;13.80;99.90
25320;DHT22;13256;49.012;8.610;2023-08-30T00:46:25;13.80;99.90
25320;DHT22;13256;49.012;8.610;2023-08-30T00:49:10;13.80;99.90
25320;DHT22;13256;49.012;8.610;2023-08-30T00:51:43;13.90;99.90
25320;DHT22;13256;49.012;8.610;2023-08-30T00:54:17;13.90;99.90
25320;DHT22;13256;49.012;8.610;2023-08-30T00:56:48;13.90;99.90
25320;DHT22;13256;49.012;8.610;2023-08-30T00:59:29;13.90;99.90
25320;DHT22;13256;49.012;8.610;2023-08-30T01:02:04;13.90;99.90
25320;DHT22;13256;49.012;8.610;2023-08-30T01:05:11;13.90;99.90
25320;DHT22;13256;49.012;8.610;2023-08-30T01:07:40;14.00;99.90
25320;DHT22;13256;49.012;8.610;2023-08-30T01:10:13;14.00;99.90
25320;DHT22;13256;49.012;8.610;2023-08-30T01:16:26;13.90;99.90
25320;DHT22;13256;49.012;8.610;2023-08-30T01:18:57;13.90;99.90
25320;DHT22;13256;49.012;8.610;2023-08-30T01:23:59;13.80;99.90
25320;DHT22;13256;49.012;8.610;2023-08-30T01:26:41;13.80;99.90
25320;DHT22;13256;49.012;8.610;2023-08-30T01:29:29;13.70;99.90
25320;DHT22;13256;49.012;8.610;2023-08-30T01:32:03;13.70;99.90
25320;DHT22;13256;49.012;8.610;2023-08-30T01:34:33;13.70;99.90
25320;DHT22;13256;49.012;8.610;2023-08-30T01:37:03;13.60;99.90
25320;DHT22;13256;49.012;8.610;2023-08-30T01:39:43;13.70;99.90
25320;DHT22;13256;49.012;8.610;2023-08-30T01:42:14;13.60;99.90
25320;DHT22;13256;49.012;8.610;2023-08-30T01:44:49;13.60;99.90
25320;DHT22;13256;49.012;8.610;2023-08-30T01:47:21;13.60;99.90
25320;DHT22;13256;49.012;8.610;2023-08-30T01:49:49;13.60;99.90
25320;DHT22;13256;49.012;8.610;2023-08-30T01:52:20;13.60;99.90
25320;DHT22;13256;49.012;8.610;2023-08-30T01:54:51;13.60;99.90
25320;DHT22;13256;49.012;8.610;2023-08-30T01:57:28;13.50;99.90
25320;DHT22;13256;49.012;8.610;2023-08-30T02:00:27;13.50;99.90
25320;DHT22;13256;49.012;8.610;2023-08-30T02:02:58;13.50;99.90
25320;DHT22;13256;49.012;8.610;2023-08-30T02:05:25;13.40;99.90
25320;DHT22;13256;49.012;8.610;2023-08-30T02:08:30;13.40;99.90
25320;DHT22;13256;49.012;8.610;2023-08-30T02:11:13;13.40;99.90
25320;DHT22;13256;49.012;8.610;2023-08-30T02:13:46;13.40;99.90
25320;DHT22;13256;49.012;8.610;2023-08-30T02:16:46;13.40;99.90
25320;DHT22;13256;49.012;8.610;2023-08-30T02:19:21;13.40;99.90
25320;DHT22;13256;49.012;8.610;2023-08-30T02:21:49;13.40;99.90
25320;DHT22;13256;49.012;8.610;2023-08-30T02:24:25;13.40;99.90
25320;DHT22;13256;49.012;8.610;2023-08-30T02:26:52;13.30;99.90
25320;DHT22;13256;49.012;8.610;2023-08-30T02:29:25;13.20;99.90
25320;DHT22;13256;49.012;8.610;2023-08-30T02:31:55;13.20;99.90
25320;DHT22;13256;49.012;8.610;2023-08-30T02:34:26;13.20;99.90
25320;DHT22;13256;49.012;8.610;2023-08-30T02:37:00;13.20;99.90
25320;DHT22;13256;49.012;8.610;2023-08-30T02:39:38;13.20;99.90
25320;DHT22;13256;49.012;8.610;2023-08-30T02:42:11;13.20;99.90
25320;DHT22;13256;49.012;8.610;2023-08-30T02:44:46;13.20;99.90
25320;DHT22;13256;49.012;8.610;2023-08-30T02:47:14;13.10;99.90
25320;DHT22;13256;49.012;8.610;2023-08-30T02:49:46;13.00;99.90
25320;DHT22;13256;49.012;8.610;2023-08-30T02:52:16;13.10;99.90
25320;DHT22;13256;49.012;8.610;2023-08-30T02:54:43;13.00;99.90
25320;DHT22;13256;49.012;8.610;2023-08-30T02:57:16;13.10;99.90
25320;DHT22;13256;49.012;8.610;2023-08-30T02:59:47;13.10;99.90
25320;DHT22;13256;49.012;8.610;2023-08-30T03:02:17;13.20;99.90
25320;DHT22;13256;49.012;8.610;2023-08-30T03:04:47;13.20;99.90
25320;DHT22;13256;49.012;8.610;2023-08-30T03:07:21;13.20;99.90
25320;DHT22;13256;49.012;8.610;2023-08-30T03:09:51;13.30;99.90
25320;DHT22;13256;49.012;8.610;2023-08-30T03:12:26;13.30;99.90
25320;DHT22;13256;49.012;8.610;2023-08-30T03:14:54;13.20;99.90
25320;DHT22;13256;49.012;8.610;2023-08-30T03:17:26;13.20;99.90
25320;DHT22;13256;49.012;8.610;2023-08-30T03:19:56;13.20;99.90
25320;DHT22;13256;49.012;8.610;2023-08-30T03:22:30;13.20;99.90
25320;DHT22;13256;49.012;8.610;2023-08-30T03:24:58;13.30;99.90
25320;DHT22;13256;49.012;8.610;2023-08-30T03:27:33;13.30;99.90
25320;DHT22;13256;49.012;8.610;2023-08-30T03:30:33;13.30;99.90
25320;DHT22;13256;49.012;8.610;2023-08-30T03:33:05;13.40;99.90
25320;DHT22;13256;49.012;8.610;2023-08-30T03:35:36;13.40;99.90
25320;DHT22;13256;49.012;8.610;2023-08-30T03:38:03;13.40;99.90
25320;DHT22;13256;49.012;8.610;2023-08-30T03:40:32;13.40;99.90
25320;DHT22;13256;49.012;8.610;2023-08-30T03:43:03;13.50;99.90
25320;DHT22;13256;49.012;8.610;2023-08-30T03:45:38;13.50;99.90
25320;DHT22;13256;49.012;8.610;2023-08-30T03:48:10;13.50;99.90
25320;DHT22;13256;49.012;8.610;2023-08-30T03:50:37;13.50;99.90
25320;DHT22;13256;49.012;8.610;2023-08-30T03:53:04;13.50;99.90
25320;DHT22;13256;49.012;8.610;2023-08-30T03:55:31;13.50;99.90
25320;DHT22;13256;49.012;8.610;2023-08-30T03:58:04;13.50;99.90
25320;DHT22;13256;49.012;8.610;2023-08-30T04:00:40;13.40;99.90
25320;DHT22;13256;49.012;8.610;2023-08-30T04:03:17;13.40;99.90
25320;DHT22;13256;49.012;8.610;2023-08-30T04:05:55;13.40;99.90
25320;DHT22;13256;49.012;8.610;2023-08-30T04:08:28;13.50;99.90
25320;DHT22;13256;49.012;8.610;2023-08-30T04:10:59;13.50;99.90
25320;DHT22;13256;49.012;8.610;2023-08-30T04:13:46;13.50;99.90
25320;DHT22;13256;49.012;8.610;2023-08-30T04:16:23;13.50;99.90
25320;DHT22;13256;49.012;8.610;2023-08-30T04:18:54;13.50;99.90
25320;DHT22;13256;49.012;8.610;2023-08-30T04:21:22;13.50;99.90
25320;DHT22;13256;49.012;8.610;2023-08-30T04:24:00;13.50;99.90
25320;DHT22;13256;49.012;8.610;2023-08-30T04:26:45;13.60;99.90
25320;DHT22;13256;49.012;8.610;2023-08-30T04:29:18;13.60;99.90
25320;DHT22;13256;49.012;8.610;2023-08-30T04:31:50;13.60;99.90
25320;DHT22;13256;49.012;8.610;2023-08-30T04:34:19;13.60;99.90
25320;DHT22;13256;49.012;8.610;2023-08-30T04:37:18;13.60;99.90
25320;DHT22;13256;49.012;8.610;2023-08-30T04:39:55;13.50;99.90
25320;DHT22;13256;49.012;8.610;2023-08-30T04:42:23;13.50;99.90
25320;DHT22;13256;49.012;8.610;2023-08-30T04:44:55;13.50;99.90
25320;DHT22;13256;49.012;8.610;2023-08-30T04:47:31;13.50;99.90
25320;DHT22;13256;49.012;8.610;2023-08-30T04:50:07;13.40;99.90
25320;DHT22;13256;49.012;8.610;2023-08-30T04:53:04;13.40;99.90
25320;DHT22;13256;49.012;8.610;2023-08-30T04:55:39;13.50;99.90
25320;DHT22;13256;49.012;8.610;2023-08-30T04:58:32;13.50;99.90
25320;DHT22;13256;49.012;8.610;2023-08-30T05:01:11;13.50;99.90
25320;DHT22;13256;49.012;8.610;2023-08-30T05:03:42;13.60;99.90
25320;DHT22;13256;49.012;8.610;2023-08-30T05:06:21;13.70;99.90
25320;DHT22;13256;49.012;8.610;2023-08-30T05:08:55;13.70;99.90
25320;DHT22;13256;49.012;8.610;2023-08-30T05:11:33;13.80;99.90
25320;DHT22;13256;49.012;8.610;2023-08-30T05:14:06;13.70;99.90
25320;DHT22;13256;49.012;8.610;2023-08-30T05:16:33;13.70;99.90
25320;DHT22;13256;49.012;8.610;2023-08-30T05:19:05;13.70;99.90
25320;DHT22;13256;49.012;8.610;2023-08-30T05:21:33;13.80;99.90
25320;DHT22;13256;49.012;8.610;2023-08-30T05:24:07;13.80;99.90
25320;DHT22;13256;49.012;8.610;2023-08-30T05:26:41;13.80;99.90
25320;DHT22;13256;49.012;8.610;2023-08-30T05:29:12;13.80;99.90
25320;DHT22;13256;49.012;8.610;2023-08-30T05:31:42;13.90;99.90
25320;DHT22;13256;49.012;8.610;2023-08-30T05:34:47;13.90;99.90
25320;DHT22;13256;49.012;8.610;2023-08-30T05:37:52;13.90;99.90
25320;DHT22;13256;49.012;8.610;2023-08-30T05:40:40;13.90;99.90
25320;DHT22;13256;49.012;8.610;2023-08-30T05:43:13;14.00;99.90
25320;DHT22;13256;49.012;8.610;2023-08-30T05:45:44;14.00;99.90
25320;DHT22;13256;49.012;8.610;2023-08-30T05:48:19;14.00;99.90
25320;DHT22;13256;49.012;8.610;2023-08-30T05:50:55;14.00;99.90
25320;DHT22;13256;49.012;8.610;2023-08-30T05:53:27;14.00;99.90
25320;DHT22;13256;49.012;8.610;2023-08-30T05:55:58;14.10;99.90
25320;DHT22;13256;49.012;8.610;2023-08-30T05:58:25;14.10;99.90
25320;DHT22;13256;49.012;8.610;2023-08-30T06:00:56;14.10;99.90
25320;DHT22;13256;49.012;8.610;2023-08-30T06:03:28;14.10;99.90
25320;DHT22;13256;49.012;8.610;2023-08-30T06:05:58;14.10;99.90
25320;DHT22;13256;49.012;8.610;2023-08-30T06:08:28;14.10;99.90
25320;DHT22;13256;49.012;8.610;2023-08-30T06:10:59;14.10;99.90
25320;DHT22;13256;49.012;8.610;2023-08-30T06:13:33;14.10;99.90
25320;DHT22;13256;49.012;8.610;2023-08-30T06:16:26;14.10;99.90
25320;DHT22;13256;49.012;8.610;2023-08-30T06:18:59;14.10;99.90
25320;DHT22;13256;49.012;8.610;2023-08-30T06:21:32;14.00;99.90
25320;DHT22;13256;49.012;8.610;2023-08-30T06:24:01;14.10;99.90
25320;DHT22;13256;49.012;8.610;2023-08-30T06:26:32;14.10;99.90
25320;DHT22;13256;49.012;8.610;2023-08-30T06:29:05;14.20;99.90
25320;DHT22;13256;49.012;8.610;2023-08-30T06:34:38;14.30;99.90
25320;DHT22;13256;49.012;8.610;2023-08-30T06:37:05;14.30;99.90
25320;DHT22;13256;49.012;8.610;2023-08-30T06:39:36;14.40;99.90
25320;DHT22;13256;49.012;8.610;2023-08-30T06:42:03;14.50;99.90
25320;DHT22;13256;49.012;8.610;2023-08-30T06:44:34;14.50;99.90
25320;DHT22;13256;49.012;8.610;2023-08-30T06:47:05;14.60;99.90
25320;DHT22;13256;49.012;8.610;2023-08-30T06:49:33;14.70;99.90
25320;DHT22;13256;49.012;8.610;2023-08-30T06:52:02;14.70;99.90
25320;DHT22;13256;49.012;8.610;2023-08-30T06:54:34;14.80;99.90
25320;DHT22;13256;49.012;8.610;2023-08-30T06:57:06;14.90;99.90
25320;DHT22;13256;49.012;8.610;2023-08-30T06:59:34;15.00;99.90
25320;DHT22;13256;49.012;8.610;2023-08-30T07:02:05;15.10;99.90
25320;DHT22;13256;49.012;8.610;2023-08-30T07:04:36;15.20;99.90
25320;DHT22;13256;49.012;8.610;2023-08-30T07:07:06;15.20;99.90
25320;DHT22;13256;49.012;8.610;2023-08-30T07:09:35;15.30;99.90
25320;DHT22;13256;49.012;8.610;2023-08-30T07:12:03;15.30;99.90
25320;DHT22;13256;49.012;8.610;2023-08-30T07:14:38;15.40;99.90
25320;DHT22;13256;49.012;8.610;2023-08-30T07:17:09;15.40;99.90
25320;DHT22;13256;49.012;8.610;2023-08-30T07:19:41;15.50;99.90
25320;DHT22;13256;49.012;8.610;2023-08-30T07:22:14;15.50;99.90
25320;DHT22;13256;49.012;8.610;2023-08-30T07:24:45;15.60;99.90
25320;DHT22;13256;49.012;8.610;2023-08-30T07:27:15;15.70;99.90
25320;DHT22;13256;49.012;8.610;2023-08-30T07:29:44;15.80;99.90
25320;DHT22;13256;49.012;8.610;2023-08-30T07:32:30;15.80;99.90
25320;DHT22;13256;49.012;8.610;2023-08-30T07:34:59;15.80;99.90
25320;DHT22;13256;49.012;8.610;2023-08-30T07:37:26;15.90;99.90
25320;DHT22;13256;49.012;8.610;2023-08-30T07:40:02;16.00;99.90
25320;DHT22;13256;49.012;8.610;2023-08-30T07:42:32;16.10;99.90
25320;DHT22;13256;49.012;8.610;2023-08-30T07:45:01;16.20;99.90
25320;DHT22;13256;49.012;8.610;2023-08-30T07:47:29;16.40;99.90
25320;DHT22;13256;49.012;8.610;2023-08-30T07:50:00;16.50;99.90
25320;DHT22;13256;49.012;8.610;2023-08-30T07:52:30;16.60;99.90
25320;DHT22;13256;49.012;8.610;2023-08-30T07:55:14;16.80;99.90
25320;DHT22;13256;49.012;8.610;2023-08-30T07:57:46;16.90;99.90
25320;DHT22;13256;49.012;8.610;2023-08-30T08:00:15;17.10;99.90
25320;DHT22;13256;49.012;8.610;2023-08-30T08:02:51;17.20;99.90
25320;DHT22;13256;49.012;8.610;2023-08-30T08:05:27;17.40;99.90
25320;DHT22;13256;49.012;8.610;2023-08-30T08:08:24;17.40;99.90
25320;DHT22;13256;49.012;8.610;2023-08-30T08:10:59;17.40;99.90
25320;DHT22;13256;49.012;8.610;2023-08-30T08:13:55;17.60;99.90
25320;DHT22;13256;49.012;8.610;2023-08-30T08:16:30;17.80;99.90
25320;DHT22;13256;49.012;8.610;2023-08-30T08:19:32;17.80;99.90
25320;DHT22;13256;49.012;8.610;2023-08-30T08:22:00;17.90;99.90
25320;DHT22;13256;49.012;8.610;2023-08-30T08:24:30;18.00;99.90
25320;DHT22;13256;49.012;8.610;2023-08-30T08:27:00;18.20;99.90
25320;DHT22;13256;49.012;8.610;2023-08-30T08:29:32;18.20;99.90
25320;DHT22;13256;49.012;8.610;2023-08-30T08:32:09;18.20;99.90
25320;DHT22;13256;49.012;8.610;2023-08-30T08:34:41;18.30;99.90
25320;DHT22;13256;49.012;8.610;2023-08-30T08:37:12;18.40;99.90
25320;DHT22;13256;49.012;8.610;2023-08-30T08:39:59;18.50;99.90
25320;DHT22;13256;49.012;8.610;2023-08-30T08:42:39;18.60;99.90
25320;DHT22;13256;49.012;8.610;2023-08-30T08:45:21;18.80;99.90
25320;DHT22;13256;49.012;8.610;2023-08-30T08:48:31;18.80;99.90
25320;DHT22;13256;49.012;8.610;2023-08-30T08:51:10;18.80;99.90
25320;DHT22;13256;49.012;8.610;2023-08-30T08:53:40;18.80;99.90
25320;DHT22;13256;49.012;8.610;2023-08-30T08:56:45;18.80;99.90
25320;DHT22;13256;49.012;8.610;2023-08-30T08:59:16;18.80;99.90
25320;DHT22;13256;49.012;8.610;2023-08-30T09:01:47;19.00;99.90
25320;DHT22;13256;49.012;8.610;2023-08-30T09:04:24;19.30;99.90
25320;DHT22;13256;49.012;8.610;2023-08-30T09:07:00;19.50;99.90
25320;DHT22;13256;49.012;8.610;2023-08-30T09:09:29;19.40;99.90
25320;DHT22;13256;49.012;8.610;2023-08-30T09:12:01;19.20;99.90
25320;DHT22;13256;49.012;8.610;2023-08-30T09:14:31;19.20;99.90
25320;DHT22;13256;49.012;8.610;2023-08-30T09:17:03;19.10;99.90
25320;DHT22;13256;49.012;8.610;2023-08-30T09:19:34;19.00;99.90
25320;DHT22;13256;49.012;8.610;2023-08-30T09:22:03;18.90;99.90
25320;DHT22;13256;49.012;8.610;2023-08-30T09:32:07;19.20;99.90
25320;DHT22;13256;49.012;8.610;2023-08-30T09:35:16;19.30;99.90
25320;DHT22;13256;49.012;8.610;2023-08-30T09:37:49;19.30;99.90
25320;DHT22;13256;49.012;8.610;2023-08-30T09:40:30;19.30;99.90
25320;DHT22;13256;49.012;8.610;2023-08-30T09:43:11;19.20;99.90
25320;DHT22;13256;49.012;8.610;2023-08-30T09:46:08;19.30;99.90
25320;DHT22;13256;49.012;8.610;2023-08-30T09:49:04;19.50;99.90
25320;DHT22;13256;49.012;8.610;2023-08-30T09:51:40;19.80;99.90
25320;DHT22;13256;49.012;8.610;2023-08-30T09:57:48;20.10;99.90
25320;DHT22;13256;49.012;8.610;2023-08-30T10:00:19;20.10;99.90
25320;DHT22;13256;49.012;8.610;2023-08-30T10:02:51;20.10;99.90
25320;DHT22;13256;49.012;8.610;2023-08-30T10:06:08;20.10;99.90
25320;DHT22;13256;49.012;8.610;2023-08-30T10:16:24;20.10;99.90
25320;DHT22;13256;49.012;8.610;2023-08-30T10:19:50;20.30;99.90
25320;DHT22;13256;49.012;8.610;2023-08-30T10:23:15;20.70;99.90
25320;DHT22;13256;49.012;8.610;2023-08-30T10:25:49;20.90;99.90
25320;DHT22;13256;49.012;8.610;2023-08-30T10:28:30;21.10;99.90
25320;DHT22;13256;49.012;8.610;2023-08-30T10:31:10;21.30;99.90
25320;DHT22;13256;49.012;8.610;2023-08-30T10:34:11;21.40;99.90
25320;DHT22;13256;49.012;8.610;2023-08-30T10:37:10;21.60;99.90
25320;DHT22;13256;49.012;8.610;2023-08-30T10:39:39;21.50;99.90
25320;DHT22;13256;49.012;8.610;2023-08-30T10:42:21;21.30;99.90
25320;DHT22;13256;49.012;8.610;2023-08-30T10:45:23;21.20;99.90
25320;DHT22;13256;49.012;8.610;2023-08-30T10:48:04;21.30;99.90
25320;DHT22;13256;49.012;8.610;2023-08-30T10:50:39;21.70;99.90
25320;DHT22;13256;49.012;8.610;2023-08-30T10:53:14;21.80;99.90
25320;DHT22;13256;49.012;8.610;2023-08-30T10:56:10;21.60;99.90
25320;DHT22;13256;49.012;8.610;2023-08-30T10:58:53;21.70;99.90
25320;DHT22;13256;49.012;8.610;2023-08-30T11:01:54;21.60;99.90
25320;DHT22;13256;49.012;8.610;2023-08-30T11:04:33;21.80;99.90
25320;DHT22;13256;49.012;8.610;2023-08-30T11:07:32;22.20;99.90
25320;DHT22;13256;49.012;8.610;2023-08-30T11:10:09;22.60;99.90
25320;DHT22;13256;49.012;8.610;2023-08-30T11:16:09;23.10;99.90
25320;DHT22;13256;49.012;8.610;2023-08-30T11:18:49;23.10;99.90
25320;DHT22;13256;49.012;8.610;2023-08-30T11:32:25;23.30;99.90
25320;DHT22;13256;49.012;8.610;2023-08-30T11:35:04;23.70;99.90
25320;DHT22;13256;49.012;8.610;2023-08-30T11:37:41;23.70;99.90
25320;DHT22;13256;49.012;8.610;2023-08-30T11:40:12;23.90;99.90
25320;DHT22;13256;49.012;8.610;2023-08-30T11:42:53;24.20;99.90
25320;DHT22;13256;49.012;8.610;2023-08-30T11:45:37;24.40;99.90
25320;DHT22;13256;49.012;8.610;2023-08-30T11:48:09;24.60;99.90
25320;DHT22;13256;49.012;8.610;2023-08-30T11:50:41;24.50;99.90
25320;DHT22;13256;49.012;8.610;2023-08-30T11:54:17;24.20;99.90
25320;DHT22;13256;49.012;8.610;2023-08-30T11:57:53;24.20;99.90
25320;DHT22;13256;49.012;8.610;2023-08-30T12:01:15;23.90;99.90
25320;DHT22;13256;49.012;8.610;2023-08-30T12:03:48;23.50;99.90
25320;DHT22;13256;49.012;8.610;2023-08-30T12:10:12;23.40;99.90
25320;DHT22;13256;49.012;8.610;2023-08-30T12:12:48;23.50;99.90
25320;DHT22;13256;49.012;8.610;2023-08-30T12:15:25;23.60;99.90
25320;DHT22;13256;49.012;8.610;2023-08-30T12:18:07;23.80;99.90
25320;DHT22;13256;49.012;8.610;2023-08-30T12:24:01;24.20;99.90
25320;DHT22;13256;49.012;8.610;2023-08-30T12:26:40;24.60;99.90
25320;DHT22;13256;49.012;8.610;2023-08-30T12:29:38;24.60;99.90
25320;DHT22;13256;49.012;8.610;2023-08-30T12:36:25;24.80;99.90
25320;DHT22;13256;49.012;8.610;2023-08-30T12:38:57;24.50;99.90
25320;DHT22;13256;49.012;8.610;2023-08-30T12:41:52;24.30;99.90
25320;DHT22;13256;49.012;8.610;2023-08-30T12:44:28;24.00;99.90
25320;DHT22;13256;49.012;8.610;2023-08-30T12:47:02;23.60;99.90
25320;DHT22;13256;49.012;8.610;2023-08-30T12:49:40;23.80;99.90
25320;DHT22;13256;49.012;8.610;2023-08-30T12:52:14;24.20;99.90
25320;DHT22;13256;49.012;8.610;2023-08-30T12:54:45;24.30;99.90
25320;DHT22;13256;49.012;8.610;2023-08-30T12:57:50;24.50;99.90
25320;DHT22;13256;49.012;8.610;2023-08-30T13:00:31;23.90;99.90
25320;DHT22;13256;49.012;8.610;2023-08-30T13:03:03;23.60;99.90
25320;DHT22;13256;49.012;8.610;2023-08-30T13:05:34;23.20;99.90
25320;DHT22;13256;49.012;8.610;2023-08-30T13:12:34;23.80;99.90
25320;DHT22;13256;49.012;8.610;2023-08-30T13:15:11;24.50;99.90
25320;DHT22;13256;49.012;8.610;2023-08-30T13:17:47;25.00;99.90
25320;DHT22;13256;49.012;8.610;2023-08-30T13:20:17;25.20;99.90
25320;DHT22;13256;49.012;8.610;2023-08-30T13:22:51;25.50;99.90
25320;DHT22;13256;49.012;8.610;2023-08-30T13:25:23;25.30;99.90
25320;DHT22;13256;49.012;8.610;2023-08-30T13:28:19;25.20;97.70
25320;DHT22;13256;49.012;8.610;2023-08-30T13:31:07;25.00;98.70
25320;DHT22;13256;49.012;8.610;2023-08-30T13:37:05;25.10;98.20
25320;DHT22;13256;49.012;8.610;2023-08-30T13:39:32;24.80;96.60
25320;DHT22;13256;49.012;8.610;2023-08-30T13:42:00;24.70;97.40
25320;DHT22;13256;49.012;8.610;2023-08-30T13:44:27;24.80;97.60
25320;DHT22;13256;49.012;8.610;2023-08-30T13:46:55;24.90;97.10
25320;DHT22;13256;49.012;8.610;2023-08-30T13:49:21;25.00;95.70
25320;DHT22;13256;49.012;8.610;2023-08-30T13:52:14;24.90;95.90
25320;DHT22;13256;49.012;8.610;2023-08-30T13:54:42;24.70;97.20
25320;DHT22;13256;49.012;8.610;2023-08-30T13:57:34;24.60;97.40
25320;DHT22;13256;49.012;8.610;2023-08-30T14:00:07;24.70;98.30
25320;DHT22;13256;49.012;8.610;2023-08-30T14:02:41;24.70;97.40
25320;DHT22;13256;49.012;8.610;2023-08-30T14:05:11;24.50;95.70
25320;DHT22;13256;49.012;8.610;2023-08-30T14:07:41;24.40;95.70
25320;DHT22;13256;49.012;8.610;2023-08-30T14:10:18;24.50;96.00
25320;DHT22;13256;49.012;8.610;2023-08-30T14:12:51;24.30;96.00
25320;DHT22;13256;49.012;8.610;2023-08-30T14:15:20;24.10;95.90
25320;DHT22;13256;49.012;8.610;2023-08-30T14:17:48;24.20;97.90
25320;DHT22;13256;49.012;8.610;2023-08-30T14:20:17;24.50;98.40
25320;DHT22;13256;49.012;8.610;2023-08-30T14:22:50;24.40;96.80
25320;DHT22;13256;49.012;8.610;2023-08-30T14:25:21;24.30;97.20
25320;DHT22;13256;49.012;8.610;2023-08-30T14:28:03;24.40;97.20
25320;DHT22;13256;49.012;8.610;2023-08-30T14:30:34;24.40;96.90
25320;DHT22;13256;49.012;8.610;2023-08-30T14:33:02;24.40;97.10
25320;DHT22;13256;49.012;8.610;2023-08-30T14:35:31;24.60;96.80
25320;DHT22;13256;49.012;8.610;2023-08-30T14:37:58;24.60;96.40
25320;DHT22;13256;49.012;8.610;2023-08-30T14:41:03;24.50;96.80
25320;DHT22;13256;49.012;8.610;2023-08-30T14:43:32;24.20;96.90
25320;DHT22;13256;49.012;8.610;2023-08-30T14:46:02;23.80;97.40
25320;DHT22;13256;49.012;8.610;2023-08-30T14:48:46;23.70;97.70
25320;DHT22;13256;49.012;8.610;2023-08-30T14:51:17;23.80;98.90
25320;DHT22;13256;49.012;8.610;2023-08-30T14:53:53;24.00;99.20
25320;DHT22;13256;49.012;8.610;2023-08-30T14:56:24;24.20;98.90
25320;DHT22;13256;49.012;8.610;2023-08-30T14:58:56;24.10;97.80
25320;DHT22;13256;49.012;8.610;2023-08-30T15:01:23;24.10;98.30
25320;DHT22;13256;49.012;8.610;2023-08-30T15:03:58;24.00;98.70
25320;DHT22;13256;49.012;8.610;2023-08-30T15:06:33;23.70;98.10
25320;DHT22;13256;49.012;8.610;2023-08-30T15:09:05;23.60;99.60
25320;DHT22;13256;49.012;8.610;2023-08-30T15:11:36;23.50;99.30
25320;DHT22;13256;49.012;8.610;2023-08-30T15:14:07;23.60;99.20
25320;DHT22;13256;49.012;8.610;2023-08-30T15:16:35;23.60;98.50
25320;DHT22;13256;49.012;8.610;2023-08-30T15:19:09;23.50;98.40
25320;DHT22;13256;49.012;8.610;2023-08-30T15:21:41;23.50;98.70
25320;DHT22;13256;49.012;8.610;2023-08-30T15:24:13;23.40;98.00
25320;DHT22;13256;49.012;8.610;2023-08-30T15:26:45;23.40;98.30
25320;DHT22;13256;49.012;8.610;2023-08-30T15:29:21;23.10;98.30
25320;DHT22;13256;49.012;8.610;2023-08-30T15:31:53;23.00;99.30
25320;DHT22;13256;49.012;8.610;2023-08-30T15:34:30;22.90;99.20
25320;DHT22;13256;49.012;8.610;2023-08-30T15:36:58;22.90;98.90
25320;DHT22;13256;49.012;8.610;2023-08-30T15:39:34;22.80;98.60
25320;DHT22;13256;49.012;8.610;2023-08-30T15:42:02;22.70;99.40
25320;DHT22;13256;49.012;8.610;2023-08-30T15:44:34;22.60;99.40
25320;DHT22;13256;49.012;8.610;2023-08-30T15:47:08;22.70;99.90
25320;DHT22;13256;49.012;8.610;2023-08-30T15:49:39;22.70;99.60
25320;DHT22;13256;49.012;8.610;2023-08-30T15:52:12;22.60;99.40
25320;DHT22;13256;49.012;8.610;2023-08-30T15:54:45;22.60;99.90
25320;DHT22;13256;49.012;8.610;2023-08-30T15:57:16;22.60;99.90
25320;DHT22;13256;49.012;8.610;2023-08-30T15:59:43;22.50;99.90
25320;DHT22;13256;49.012;8.610;2023-08-30T16:02:14;22.40;99.90
25320;DHT22;13256;49.012;8.610;2023-08-30T16:04:43;22.40;99.70
25320;DHT22;13256;49.012;8.610;2023-08-30T16:07:12;22.30;99.90
25320;DHT22;13256;49.012;8.610;2023-08-30T16:09:44;22.30;99.90
25320;DHT22;13256;49.012;8.610;2023-08-30T16:12:15;22.20;99.90
25320;DHT22;13256;49.012;8.610;2023-08-30T16:15:16;22.10;99.40
25320;DHT22;13256;49.012;8.610;2023-08-30T16:17:47;22.00;99.90
25320;DHT22;13256;49.012;8.610;2023-08-30T16:20:15;22.00;99.90
25320;DHT22;13256;49.012;8.610;2023-08-30T16:22:47;22.00;99.90
25320;DHT22;13256;49.012;8.610;2023-08-30T16:25:16;21.90;99.90
25320;DHT22;13256;49.012;8.610;2023-08-30T16:27:47;22.00;99.90
25320;DHT22;13256;49.012;8.610;2023-08-30T16:30:17;21.90;99.90
25320;DHT22;13256;49.012;8.610;2023-08-30T16:32:45;21.90;99.90
25320;DHT22;13256;49.012;8.610;2023-08-30T16:35:17;21.90;99.90
25320;DHT22;13256;49.012;8.610;2023-08-30T16:37:46;21.80;99.90
25320;DHT22;13256;49.012;8.610;2023-08-30T16:40:13;21.70;99.90
25320;DHT22;13256;49.012;8.610;2023-08-30T16:42:44;21.70;99.90
25320;DHT22;13256;49.012;8.610;2023-08-30T16:45:17;21.60;99.90
25320;DHT22;13256;49.012;8.610;2023-08-30T16:47:47;21.50;99.90
25320;DHT22;13256;49.012;8.610;2023-08-30T16:50:44;21.40;99.90
25320;DHT22;13256;49.012;8.610;2023-08-30T16:56:35;21.30;99.90
25320;DHT22;13256;49.012;8.610;2023-08-30T16:59:07;21.20;99.90
25320;DHT22;13256;49.012;8.610;2023-08-30T17:01:43;21.20;99.90
25320;DHT22;13256;49.012;8.610;2023-08-30T17:04:18;21.20;99.90
25320;DHT22;13256;49.012;8.610;2023-08-30T17:06:47;21.10;99.90
25320;DHT22;13256;49.012;8.610;2023-08-30T17:09:17;21.00;99.90
25320;DHT22;13256;49.012;8.610;2023-08-30T17:11:53;21.00;99.90
25320;DHT22;13256;49.012;8.610;2023-08-30T17:14:22;20.90;99.90
25320;DHT22;13256;49.012;8.610;2023-08-30T17:17:19;20.90;99.90
25320;DHT22;13256;49.012;8.610;2023-08-30T17:19:49;20.90;99.90
25320;DHT22;13256;49.012;8.610;2023-08-30T17:22:22;20.80;99.90
25320;DHT22;13256;49.012;8.610;2023-08-30T17:24:59;20.70;99.90
25320;DHT22;13256;49.012;8.610;2023-08-30T17:27:41;20.70;99.90
25320;DHT22;13256;49.012;8.610;2023-08-30T17:30:19;20.60;99.90